Time;durP1;ratioP1;P1;durP2;ratioP2;P2;SDS_P1;SDS_P2;PMS_P1;PMS_P2;Temp;Humidity;BMP_temperature;BMP_pressure;BME280_temperature;BME280_humidity;BME280_pressure;Samples;Min_cycle;Max_cycle;Signal;HPM_P1;HPM_P2
2021/03/13 00:01:50;;;;;;;1.60;1.60;;;5.30;99.90;;;6.14;85.65;97282.78;5227079;28;20232;-63
2021/03/13 00:04:22;;;;;;;1.70;1.60;;;5.30;99.90;;;6.20;85.11;97278.09;5227438;28;20255;-65
2021/03/13 00:06:54;;;;;;;1.90;1.80;;;5.30;99.90;;;6.20;85.51;97278.09;5222042;28;20209;-63
2021/03/13 00:09:26;;;;;;;2.20;2.10;;;5.30;99.90;;;6.14;85.85;97282.78;5233832;28;20221;-64
2021/03/13 00:11:58;;;;;;;1.47;1.47;;;5.30;99.90;;;6.20;85.48;97283.19;5227231;28;20194;-64
2021/03/13 00:14:30;;;;;;;1.37;1.37;;;5.30;99.90;;;6.22;85.39;97286.72;5221898;28;20197;-65
2021/03/13 00:17:03;;;;;;;1.70;1.67;;;5.40;99.90;;;6.26;84.87;97288.66;5206619;28;20229;-64
2021/03/13 00:19:35;;;;;;;1.87;1.80;;;5.30;99.90;;;6.22;84.94;97291.78;5226890;28;20256;-65
2021/03/13 00:22:07;;;;;;;1.97;1.87;;;5.40;99.90;;;6.25;86.17;97291.97;5227783;28;20300;-65
2021/03/13 00:24:41;;;;;;;2.00;1.90;;;5.40;99.90;;;6.16;86.28;97286.31;5226729;28;20221;-64
2021/03/13 00:27:13;;;;;;;1.73;1.63;;;5.30;99.90;;;6.14;85.79;97285.31;5226903;28;20204;-65
2021/03/13 00:29:45;;;;;;;2.00;1.90;;;5.30;99.90;;;6.03;85.82;97276.16;5226469;28;20228;-64
2021/03/13 00:32:18;;;;;;;2.00;2.00;;;5.30;99.90;;;5.96;86.23;97276.53;5226969;28;20719;-65
2021/03/13 00:34:51;;;;;;;2.27;2.17;;;5.20;99.90;;;5.97;86.53;97283.34;5226691;28;20679;-65
2021/03/13 00:37:23;;;;;;;2.23;2.13;;;5.20;99.90;;;5.93;87.30;97281.38;5232706;28;20216;-64
2021/03/13 00:39:55;;;;;;;2.20;2.10;;;5.20;99.90;;;5.80;86.84;97272.06;5245203;28;20220;-64
2021/03/13 00:42:27;;;;;;;1.80;1.80;;;5.20;99.90;;;5.68;86.77;97279.75;5247737;28;20679;-63
2021/03/13 00:44:59;;;;;;;2.20;2.00;;;5.00;99.90;;;5.73;87.09;97269.94;5230940;28;20241;-63
2021/03/13 00:47:32;;;;;;;1.90;1.80;;;5.10;99.90;;;5.78;88.13;97266.91;5226837;28;20196;-63
2021/03/13 00:50:07;;;;;;;2.00;1.90;;;5.20;99.90;;;5.84;88.49;97272.38;5216172;28;20256;-65
2021/03/13 00:52:40;;;;;;;2.27;2.07;;;5.20;99.90;;;5.82;88.71;97257.84;5206112;28;20292;-65
2021/03/13 00:55:12;;;;;;;2.37;2.27;;;5.20;99.90;;;5.87;88.10;97257.38;5207251;28;20200;-64
2021/03/13 00:57:45;;;;;;;2.40;2.30;;;5.20;99.90;;;5.92;87.58;97246.63;5205975;28;20571;-64
2021/03/13 01:00:24;;;;;;;2.30;2.13;;;5.30;99.90;;;5.98;88.13;97250.50;5205984;28;20217;-65
2021/03/13 01:02:57;;;;;;;11.97;10.63;;;5.30;99.90;;;6.08;87.54;97251.97;5223183;28;20197;-65
2021/03/13 01:05:30;;;;;;;4.67;4.30;;;5.40;99.90;;;6.08;86.73;97241.81;5226786;28;20635;-65
2021/03/13 01:08:03;;;;;;;5.23;4.90;;;5.30;99.90;;;6.00;88.11;97242.97;5229056;28;20203;-65
2021/03/13 01:10:53;;;;;;;3.13;2.93;;;5.30;99.90;;;5.98;88.08;97220.06;5226637;28;20201;-63
2021/03/13 01:13:25;;;;;;;3.03;2.83;;;5.30;99.90;;;5.86;87.21;97222.63;5225476;28;20296;-65
2021/03/13 01:15:57;;;;;;;3.20;3.00;;;5.30;99.90;;;5.91;88.92;97214.47;5226711;28;20211;-65
2021/03/13 01:18:30;;;;;;;2.57;2.40;;;5.30;99.90;;;5.96;88.79;97221.63;5221998;28;20316;-65
2021/03/13 01:21:03;;;;;;;3.17;2.50;;;5.30;99.90;;;5.96;87.00;97210.59;5225785;28;20287;-63
2021/03/13 01:23:34;;;;;;;3.27;2.60;;;5.30;99.90;;;5.93;87.04;97201.13;5226110;28;20227;-64
2021/03/13 01:26:08;;;;;;;3.17;2.97;;;5.30;99.90;;;6.06;87.84;97197.69;5217699;28;20219;-64
2021/03/13 01:28:40;;;;;;;5.13;4.43;;;5.30;99.90;;;6.25;85.69;97184.53;5206415;28;20228;-65
2021/03/13 01:31:12;;;;;;;3.40;3.10;;;5.40;99.90;;;6.12;86.91;97187.94;5219033;28;20193;-65
2021/03/13 01:33:44;;;;;;;2.90;2.70;;;5.40;99.90;;;6.06;87.27;97180.81;5225933;28;20235;-65
2021/03/13 01:36:16;;;;;;;2.80;2.60;;;5.40;99.90;;;6.04;88.43;97184.94;5225801;28;20208;-65
2021/03/13 01:38:48;;;;;;;2.40;2.30;;;5.40;99.90;;;6.06;88.37;97183.34;5237588;28;20221;-65
2021/03/13 01:41:21;;;;;;;2.37;2.17;;;5.40;99.90;;;6.07;88.77;97187.66;5225575;28;20197;-65
2021/03/13 01:43:53;;;;;;;2.20;2.03;;;5.50;99.90;;;6.06;88.91;97174.88;5225891;28;20200;-65
2021/03/13 01:46:26;;;;;;;2.40;2.30;;;5.40;99.90;;;6.07;89.56;97166.50;5225215;28;20244;-65
2021/03/13 01:48:59;;;;;;;3.03;2.03;;;5.40;99.90;;;6.11;89.81;97165.91;5225682;28;20241;-63
2021/03/13 01:51:31;;;;;;;2.37;2.27;;;5.50;99.90;;;6.12;89.16;97154.97;5219889;28;20223;-65
2021/03/13 01:54:04;;;;;;;2.70;2.20;;;5.50;99.90;;;6.11;88.64;97145.59;5225940;28;20295;-65
2021/03/13 01:56:37;;;;;;;2.50;2.40;;;5.40;99.90;;;6.09;89.72;97153.13;5224220;28;20276;-65
2021/03/13 01:59:10;;;;;;;2.20;2.10;;;5.40;99.90;;;6.13;89.55;97154.19;5224012;28;20224;-64
2021/03/13 02:01:44;;;;;;;1.97;1.83;;;5.40;99.90;;;6.11;90.34;97148.13;5216293;28;20229;-65
2021/03/13 02:04:18;;;;;;;2.27;2.07;;;5.40;99.90;;;6.06;89.72;97152.91;5205231;28;20230;-65
2021/03/13 02:06:58;;;;;;;2.50;2.30;;;5.40;99.90;;;6.16;88.31;97141.69;5220630;28;20200;-65
2021/03/13 02:09:43;;;;;;;2.20;2.10;;;5.40;99.90;;;6.30;86.78;97122.25;5237777;28;20610;-63
2021/03/13 02:12:27;;;;;;;2.43;2.30;;;5.50;99.90;;;6.18;87.67;97116.41;5231814;28;20200;-64
2021/03/13 02:15:04;;;;;;;2.57;2.40;;;5.50;99.90;;;6.13;87.77;97118.69;5225546;28;20222;-64
2021/03/13 02:17:43;;;;;;;2.03;1.83;;;5.50;99.90;;;6.14;88.41;97112.81;5224474;28;20284;-63
2021/03/13 02:20:54;;;;;;;2.60;2.50;;;5.40;99.90;;;6.03;88.46;97112.13;5215688;28;20232;-65
2021/03/13 02:23:28;;;;;;;2.60;2.37;;;5.40;99.90;;;6.00;88.63;97091.66;5200163;28;20579;-64
2021/03/13 02:26:19;;;;;;;2.40;2.20;;;5.40;99.90;;;6.02;88.31;97099.38;5204889;28;20228;-64
2021/03/13 02:28:59;;;;;;;2.97;2.17;;;5.40;99.90;;;5.94;88.06;97090.41;5216122;28;20595;-63
2021/03/13 02:31:50;;;;;;;2.73;2.40;;;5.30;99.90;;;5.94;89.34;97090.41;5225560;28;20200;-64
2021/03/13 02:34:29;;;;;;;2.23;2.03;;;5.30;99.90;;;5.97;89.37;97095.69;5224491;28;20239;-64
2021/03/13 02:37:05;;;;;;;2.43;2.30;;;5.20;99.90;;;5.98;88.70;97093.25;5230874;28;20201;-64
2021/03/13 02:39:41;;;;;;;3.23;2.37;;;5.30;99.90;;;5.98;88.59;97085.63;5236628;28;20220;-64
2021/03/13 02:42:14;;;;;;;2.00;1.90;;;5.30;99.90;;;5.99;88.64;97082.31;5228138;28;20207;-64
2021/03/13 02:44:48;;;;;;;2.30;2.20;;;5.30;99.90;;;6.20;87.84;97079.34;5228189;28;20228;-63
2021/03/13 02:47:23;;;;;;;2.67;2.47;;;5.40;99.90;;;6.21;87.81;97076.91;5227969;28;20208;-65
2021/03/13 02:49:56;;;;;;;3.13;2.93;;;5.40;99.90;;;6.44;86.26;97075.75;5229526;28;20718;-64
2021/03/13 02:52:29;;;;;;;2.93;2.70;;;5.50;99.90;;;6.48;84.80;97066.66;5228289;28;20587;-64
2021/03/13 02:55:03;;;;;;;3.10;2.60;;;5.60;99.90;;;6.41;85.69;97067.06;5221908;28;20668;-62
2021/03/13 02:57:36;;;;;;;3.07;2.80;;;5.60;99.90;;;6.34;85.97;97057.34;5225675;28;20261;-63
2021/03/13 03:00:10;;;;;;;3.70;3.43;;;5.50;99.90;;;6.52;84.70;97063.50;5208031;28;20222;-64
2021/03/13 03:02:45;;;;;;;3.63;3.33;;;5.60;99.90;;;6.40;85.59;97052.63;5213499;28;20283;-63
2021/03/13 03:05:18;;;;;;;3.70;3.50;;;5.60;99.90;;;6.41;85.20;97044.22;5229106;28;20306;-64
2021/03/13 03:07:53;;;;;;;4.17;3.87;;;5.50;99.90;;;6.41;85.17;97049.28;5228909;28;20198;-63
2021/03/13 03:10:30;;;;;;;3.50;3.20;;;5.50;99.90;;;6.27;85.91;97040.88;5244351;28;20203;-63
2021/03/13 03:13:05;;;;;;;3.80;3.37;;;5.50;99.90;;;6.37;85.33;97032.13;5209399;28;20205;-64
2021/03/13 03:15:37;;;;;;;3.30;3.00;;;5.50;99.90;;;6.34;85.11;97032.81;5208046;28;20233;-63
2021/03/13 03:18:16;;;;;;;3.47;3.17;;;5.50;99.90;;;6.34;84.63;97027.75;5224213;28;20189;-64
2021/03/13 03:20:50;;;;;;;3.87;3.30;;;5.50;99.90;;;6.32;85.41;97025.13;5228921;28;20668;-64
2021/03/13 03:23:22;;;;;;;3.13;2.73;;;5.40;99.90;;;6.47;83.01;97019.22;5228068;28;20204;-64
2021/03/13 03:25:55;;;;;;;4.27;2.63;;;5.50;99.90;;;6.52;81.23;97012.72;5218436;28;20320;-64
2021/03/13 03:28:27;;;;;;;3.00;2.23;;;5.60;99.90;;;6.43;82.80;97017.28;5208564;28;20232;-63
2021/03/13 03:31:00;;;;;;;2.57;2.33;;;5.70;99.90;;;6.73;80.19;97014.00;5228363;28;20200;-64
2021/03/13 03:33:33;;;;;;;3.37;2.10;;;5.90;99.90;;;6.79;78.57;97017.69;5227968;28;20263;-63
2021/03/13 03:36:06;;;;;;;3.33;2.40;;;6.00;99.90;;;6.72;79.07;97012.25;5209505;28;20197;-63
2021/03/13 03:38:39;;;;;;;4.07;1.93;;;6.10;99.90;;;6.73;78.87;97008.91;5239826;28;20220;-63
2021/03/13 03:41:11;;;;;;;2.93;2.10;;;6.00;99.90;;;6.87;77.18;97008.84;5228350;28;20586;-63
2021/03/13 03:43:46;;;;;;;2.57;2.20;;;6.20;99.90;;;6.91;77.46;97000.59;5226190;28;20751;-63
2021/03/13 03:46:18;;;;;;;4.17;2.40;;;6.20;99.90;;;7.06;75.29;96998.03;5207430;28;20264;-63
2021/03/13 03:48:53;;;;;;;4.97;2.50;;;6.40;99.90;;;7.06;75.31;96993.84;5219044;28;20258;-63
2021/03/13 03:51:28;;;;;;;2.67;2.37;;;6.40;99.90;;;7.15;75.02;96989.28;5207828;28;20229;-63
2021/03/13 03:54:05;;;;;;;2.50;2.30;;;6.40;99.90;;;7.01;74.94;96990.19;5214296;28;20204;-64
2021/03/13 03:56:39;;;;;;;2.23;2.07;;;6.40;99.90;;;6.99;75.79;96987.53;5226150;28;20191;-63
2021/03/13 03:59:17;;;;;;;2.87;2.23;;;6.30;99.90;;;7.16;75.68;96982.53;5222614;28;20689;-63
2021/03/13 04:01:53;;;;;;;2.90;2.70;;;6.40;99.90;;;7.35;72.27;96980.19;5211908;28;20583;-63
2021/03/13 04:04:29;;;;;;;2.23;2.03;;;6.60;99.90;;;7.34;72.90;96981.00;5227051;28;20200;-63
2021/03/13 04:07:03;;;;;;;4.30;2.33;;;6.70;99.90;;;7.31;72.78;96992.66;5231435;28;20224;-62
2021/03/13 04:09:36;;;;;;;2.40;2.20;;;6.80;99.90;;;7.38;72.99;96976.94;5235371;28;20217;-64
2021/03/13 04:12:09;;;;;;;3.37;2.57;;;6.70;99.90;;;7.31;73.29;96979.97;5227821;28;20204;-62
2021/03/13 04:14:42;;;;;;;3.73;2.43;;;6.70;99.90;;;7.42;72.52;96981.44;5215419;28;20208;-62
2021/03/13 04:17:16;;;;;;;2.47;2.27;;;6.70;99.90;;;7.45;71.88;96971.44;5224067;28;20291;-63
2021/03/13 04:19:49;;;;;;;2.33;2.13;;;6.90;99.90;;;7.51;71.70;96969.22;5241950;22;20295;-58
2021/03/13 04:22:23;;;;;;;3.20;2.20;;;6.90;99.90;;;7.52;71.23;96981.13;5227026;28;20251;-57
2021/03/13 04:24:57;;;;;;;4.23;2.10;;;6.90;99.90;;;7.53;71.08;96967.63;5226822;28;20207;-58
2021/03/13 04:27:30;;;;;;;3.33;2.47;;;6.90;99.90;;;7.60;71.42;96973.91;5226611;28;20576;-55
2021/03/13 04:30:02;;;;;;;4.17;2.20;;;6.90;99.90;;;7.60;71.17;96969.69;5227451;28;20508;-57
2021/03/13 04:32:35;;;;;;;2.53;2.00;;;6.80;99.90;;;7.56;70.86;96957.63;5213179;28;20545;-60
2021/03/13 04:35:10;;;;;;;2.93;1.77;;;6.90;99.90;;;7.56;71.07;96967.81;5206694;28;20237;-58
2021/03/13 04:37:43;;;;;;;3.57;2.20;;;7.00;99.90;;;7.56;70.25;96959.31;5215084;28;20200;-57
2021/03/13 04:40:16;;;;;;;2.13;2.03;;;7.00;99.90;;;7.61;70.21;96968.03;5209866;28;20245;-60
2021/03/13 04:42:51;;;;;;;3.53;2.20;;;7.00;99.90;;;7.58;70.69;96966.22;5213434;28;20212;-58
2021/03/13 04:45:24;;;;;;;1.93;1.80;;;7.00;99.90;;;7.64;70.35;96958.91;5226989;28;20310;-60
2021/03/13 04:47:57;;;;;;;3.50;2.00;;;7.00;99.90;;;7.74;70.24;96956.88;5217359;28;20228;-55
2021/03/13 04:50:29;;;;;;;3.37;1.90;;;7.00;99.90;;;7.73;70.64;96965.28;5205987;28;20271;-57
2021/03/13 04:53:02;;;;;;;1.93;1.83;;;7.00;99.90;;;7.73;71.01;96961.06;5217633;28;20355;-57
2021/03/13 04:55:34;;;;;;;2.93;1.93;;;6.90;99.90;;;7.67;70.79;96968.38;5226815;28;20200;-56
2021/03/13 04:58:06;;;;;;;3.70;2.10;;;7.00;99.90;;;7.70;69.66;96971.09;5214938;28;20564;-56
2021/03/13 05:00:39;;;;;;;2.13;1.90;;;7.00;99.90;;;7.77;69.78;96957.88;5219724;28;20576;-58
2021/03/13 05:03:10;;;;;;;2.23;2.07;;;7.10;99.90;;;7.79;69.17;96952.91;5206320;28;20209;-58
2021/03/13 05:05:43;;;;;;;2.63;1.83;;;7.10;99.90;;;7.89;69.08;96952.56;5206296;28;20221;-58
2021/03/13 05:08:15;;;;;;;3.63;1.83;;;7.20;99.90;;;7.88;68.65;96961.88;5213899;28;20194;-57
2021/03/13 05:10:47;;;;;;;3.00;2.03;;;7.30;99.90;;;7.96;68.59;96954.66;5222284;28;20198;-58
2021/03/13 05:13:19;;;;;;;2.13;1.90;;;7.40;99.90;;;7.95;70.12;96959.66;5205617;28;20224;-60
2021/03/13 05:15:51;;;;;;;3.40;2.30;;;7.40;99.90;;;7.89;69.49;96947.47;5206996;28;20558;-60
2021/03/13 05:18:23;;;;;;;2.50;2.30;;;7.40;99.90;;;7.99;69.31;96942.09;5205402;28;20676;-57
2021/03/13 05:20:56;;;;;;;2.37;2.13;;;7.40;99.90;;;8.02;69.33;96946.47;5216198;28;20201;-55
2021/03/13 05:23:28;;;;;;;2.10;1.60;;;7.40;99.90;;;7.96;69.13;96933.44;5205699;28;20220;-59
2021/03/13 05:26:01;;;;;;;2.00;1.90;;;7.30;99.90;;;7.99;68.53;96938.69;5205381;28;20650;-57
2021/03/13 05:28:33;;;;;;;2.30;2.13;;;7.30;99.90;;;8.00;68.54;96926.03;5205238;28;20236;-57
2021/03/13 05:31:05;;;;;;;3.03;1.70;;;7.30;99.90;;;7.97;69.21;96925.88;5215456;28;20197;-60
2021/03/13 05:33:37;;;;;;;4.37;2.20;;;7.20;99.90;;;8.03;68.37;96926.16;5205600;28;20198;-61
2021/03/13 05:36:11;;;;;;;3.57;2.00;;;7.10;99.90;;;8.05;68.41;96921.19;5205320;28;20201;-62
2021/03/13 05:38:43;;;;;;;2.50;1.90;;;7.10;99.90;;;8.02;68.49;96919.34;5212749;28;20222;-64
2021/03/13 05:41:16;;;;;;;2.27;2.07;;;7.10;99.90;;;8.05;67.97;96916.09;5217378;28;20194;-55
2021/03/13 05:43:49;;;;;;;2.43;1.93;;;7.20;99.90;;;8.07;67.37;96925.56;5205449;28;20196;-57
2021/03/13 05:46:22;;;;;;;2.60;2.00;;;7.40;99.90;;;8.02;68.10;96926.13;5204421;28;20567;-56
2021/03/13 05:48:59;;;;;;;2.70;2.10;;;7.30;99.90;;;8.04;67.85;96922.84;5204912;28;20245;-60
2021/03/13 05:51:36;;;;;;;3.00;1.77;;;7.30;99.90;;;8.06;68.03;96928.00;5200998;28;20308;-55
2021/03/13 05:54:08;;;;;;;660.33;460.43;;;7.30;99.90;;;8.00;68.54;96923.47;5205607;28;20205;-58
2021/03/13 05:56:40;;;;;;;50.40;44.07;;;7.20;99.90;;;8.16;67.60;96916.66;5207578;28;20202;-58
2021/03/13 05:59:13;;;;;;;4.90;4.50;;;7.20;99.90;;;8.10;67.77;96925.72;5207370;28;20615;-57
2021/03/13 06:01:46;;;;;;;3.70;2.30;;;7.20;99.90;;;8.06;68.44;96925.47;5208501;28;20577;-59
2021/03/13 06:04:28;;;;;;;3.33;2.07;;;7.20;99.90;;;8.08;68.42;96923.88;5223637;28;20205;-56
2021/03/13 06:07:02;;;;;;;2.97;1.80;;;7.10;99.90;;;8.06;68.20;96916.16;5210533;28;20225;-56
2021/03/13 06:09:34;;;;;;;2.70;1.80;;;7.20;99.90;;;8.02;68.44;96921.88;5217601;28;20228;-60
2021/03/13 06:12:08;;;;;;;2.20;2.00;;;7.20;99.90;;;7.97;68.96;96910.59;5221324;28;20201;-60
2021/03/13 06:14:41;;;;;;;2.90;2.27;;;7.10;99.90;;;8.22;68.14;96912.72;5215093;28;20197;-57
2021/03/13 06:17:13;;;;;;;3.13;2.00;;;7.20;99.90;;;8.41;67.07;96914.53;5208355;28;20190;-56
2021/03/13 06:19:51;;;;;;;2.27;1.80;;;7.30;99.90;;;8.44;66.04;96898.53;5209158;28;20659;-59
2021/03/13 06:22:39;;;;;;;3.17;1.90;;;7.50;99.90;;;8.39;65.78;96895.78;5208992;28;20201;-58
2021/03/13 06:25:21;;;;;;;2.13;2.03;;;7.50;99.90;;;8.46;65.67;96902.06;5208760;28;20204;-59
2021/03/13 06:28:12;;;;;;;2.17;2.07;;;7.50;99.90;;;8.53;65.78;96884.59;5209727;28;20824;-58
2021/03/13 06:30:46;;;;;;;2.23;1.90;;;7.60;99.90;;;8.54;65.39;96878.72;5213443;28;20194;-61
2021/03/13 06:33:28;;;;;;;2.00;1.83;;;7.70;99.90;;;8.58;64.47;96867.00;5212012;28;20196;-58
2021/03/13 06:36:04;;;;;;;3.33;2.20;;;7.70;99.90;;;8.71;64.11;96858.28;5219702;28;20224;-57
2021/03/13 06:38:38;;;;;;;2.10;1.90;;;7.80;99.90;;;8.83;63.17;96870.72;5217771;28;20215;-62
2021/03/13 06:41:13;;;;;;;2.40;1.80;;;8.00;99.90;;;9.03;62.36;96873.41;5219370;28;20212;-61
2021/03/13 06:43:46;;;;;;;2.57;2.13;;;8.20;99.90;;;9.26;62.31;96871.03;5209961;28;20212;-61
2021/03/13 06:46:19;;;;;;;2.20;1.80;;;8.40;99.90;;;9.48;61.01;96878.88;5217659;28;20213;-61
2021/03/13 06:48:54;;;;;;;2.20;2.10;;;8.60;99.90;;;9.62;59.96;96876.09;5208295;28;20220;-61
2021/03/13 06:51:29;;;;;;;2.30;2.10;;;8.80;99.90;;;9.60;62.06;96867.47;5207926;28;20281;-61
2021/03/13 06:54:13;;;;;;;2.20;2.00;;;8.80;99.90;;;9.57;60.24;96869.91;5197987;28;20294;-61
2021/03/13 06:56:48;;;;;;;2.10;1.90;;;8.80;99.90;;;9.48;59.68;96862.72;5208341;28;20198;-61
2021/03/13 06:59:24;;;;;;;1.50;1.40;;;8.80;99.90;;;9.42;60.08;96859.88;5207137;28;20215;-61
2021/03/13 07:02:03;;;;;;;3.10;2.07;;;8.60;99.90;;;9.33;60.38;96852.69;5207379;28;20208;-60
2021/03/13 07:04:38;;;;;;;2.30;2.10;;;8.50;99.90;;;9.33;60.14;96852.69;5201760;28;20681;-60
2021/03/13 07:07:13;;;;;;;2.23;2.03;;;8.60;99.90;;;9.41;59.92;96861.56;5210694;28;20308;-59
2021/03/13 07:09:52;;;;;;;2.67;2.27;;;8.70;99.90;;;9.76;60.29;96854.59;5212291;28;20692;-61
2021/03/13 07:12:32;;;;;;;2.13;1.93;;;9.00;99.90;;;9.87;58.20;96844.84;5207778;28;20198;-61
2021/03/13 07:15:17;;;;;;;2.87;2.20;;;9.20;99.90;;;10.10;58.23;96831.41;5207688;28;20548;-61
2021/03/13 07:17:52;;;;;;;3.57;1.80;;;9.30;99.90;;;10.04;58.61;96827.69;5206091;28;20220;-61
2021/03/13 07:20:27;;;;;;;2.13;1.63;;;9.20;99.90;;;10.23;58.26;96837.00;5206408;28;20233;-60
2021/03/13 07:23:01;;;;;;;2.40;2.20;;;9.30;99.90;;;10.51;56.37;96824.59;5206057;28;20201;-61
2021/03/13 07:25:34;;;;;;;2.73;2.00;;;9.80;99.90;;;10.79;55.96;96831.69;5205965;28;20317;-61
2021/03/13 07:28:08;;;;;;;2.00;1.87;;;10.20;99.90;;;10.95;55.24;96820.34;5206873;28;20267;-60
2021/03/13 07:30:42;;;;;;;3.07;2.23;;;10.20;99.90;;;10.91;55.05;96820.19;5208317;28;20251;-59
2021/03/13 07:33:15;;;;;;;1.80;1.70;;;10.00;99.90;;;10.88;54.92;96815.81;5195138;28;20198;-61
2021/03/13 07:35:51;;;;;;;2.13;2.03;;;9.90;99.90;;;10.73;54.89;96815.22;5209075;28;20661;-59
2021/03/13 07:38:27;;;;;;;2.00;1.80;;;9.90;99.90;;;10.66;54.80;96824.31;5215911;28;20200;-61
2021/03/13 07:41:01;;;;;;;2.40;1.87;;;10.10;99.90;;;10.64;54.90;96810.59;5211775;28;20202;-61
2021/03/13 07:43:35;;;;;;;2.57;1.80;;;10.00;99.90;;;10.69;55.23;96819.34;5204996;28;20198;-60
2021/03/13 07:46:08;;;;;;;1.80;1.70;;;10.00;99.90;;;10.94;54.15;96805.84;5206177;28;20586;-60
2021/03/13 07:48:41;;;;;;;2.00;1.90;;;10.30;99.90;;;11.12;53.64;96797.97;5205543;28;20543;-60
2021/03/13 07:51:14;;;;;;;3.03;1.90;;;10.50;99.90;;;11.25;53.79;96802.75;5209321;28;20197;-61
2021/03/13 07:53:46;;;;;;;2.60;1.80;;;10.60;99.90;;;11.56;52.51;96796.19;5214249;28;20200;-61
2021/03/13 07:56:20;;;;;;;2.40;2.13;;;11.00;99.90;;;11.82;52.35;96779.19;5208810;28;20225;-61
2021/03/13 07:58:52;;;;;;;2.47;1.70;;;11.30;99.90;;;11.84;51.34;96790.34;5205836;28;20227;-61
2021/03/13 08:01:49;;;;;;;1.97;1.70;;;11.20;99.90;;;11.79;51.12;96775.63;5205436;28;20313;-61
2021/03/13 08:04:57;;;;;;;2.10;2.00;;;10.90;99.90;;;11.70;51.38;96784.75;5205311;28;20208;-61
2021/03/13 08:07:30;;;;;;;2.03;1.73;;;10.90;99.90;;;11.83;51.25;96769.81;5214455;28;20600;-61
2021/03/13 08:10:03;;;;;;;1.70;1.60;;;11.10;99.90;;;11.81;50.31;96784.25;5213071;28;20214;-60
2021/03/13 08:12:41;;;;;;;1.70;1.60;;;11.10;99.90;;;11.77;50.22;96787.53;5212417;28;20217;-61
2021/03/13 08:15:43;;;;;;;1.90;1.80;;;11.10;99.70;;;11.85;50.68;96781.88;5206275;28;20200;-59
2021/03/13 08:18:46;;;;;;;2.30;1.70;;;11.20;99.70;;;11.71;49.89;96773.69;5207404;28;20200;-60
2021/03/13 08:21:44;;;;;;;2.97;1.80;;;11.00;99.30;;;11.56;50.17;96783.41;5152182;28;20191;-60
2021/03/13 08:24:43;;;;;;;2.00;1.60;;;10.80;99.30;;;11.42;50.16;96779.47;5206119;28;20293;-60
2021/03/13 08:27:18;;;;;;;1.70;1.60;;;10.70;99.00;;;11.33;51.23;96780.03;5206674;28;20225;-61
2021/03/13 08:29:57;;;;;;;1.60;1.60;;;10.60;99.90;;;11.30;50.33;96768.78;5206719;28;20690;-61
2021/03/13 08:33:06;;;;;;;1.60;1.50;;;10.60;99.20;;;11.38;50.21;96754.59;5214522;28;20246;-61
2021/03/13 08:35:48;;;;;;;2.00;1.63;;;10.70;99.10;;;11.35;50.33;96757.91;5206901;28;20668;-58
2021/03/13 08:38:52;;;;;;;1.93;1.83;;;10.80;98.80;;;11.35;50.19;96741.69;5218838;28;20589;-58
2021/03/13 08:41:47;;;;;;;2.17;1.77;;;10.80;98.70;;;11.47;49.49;96734.44;5206363;28;20197;-59
2021/03/13 08:44:32;;;;;;;2.10;1.70;;;11.00;98.30;;;11.41;49.69;96737.66;5206438;28;20293;-61
2021/03/13 08:47:05;;;;;;;1.70;1.60;;;10.90;98.20;;;11.42;49.08;96729.19;5206376;28;20228;-60
2021/03/13 08:49:45;;;;;;;1.80;1.70;;;10.90;97.70;;;11.50;49.17;96714.97;5205981;28;20214;-59
2021/03/13 08:52:24;;;;;;;1.77;1.65;;;10.90;97.70;;;11.65;49.02;96713.75;5206227;28;20241;-58
2021/03/13 08:54:58;;;;;;;1.83;1.73;;;11.00;98.20;;;11.81;48.46;96717.69;5206572;28;20288;-60
2021/03/13 08:57:48;;;;;;;1.70;1.60;;;11.10;97.70;;;11.84;49.24;96700.72;5205968;28;20237;-61
2021/03/13 09:00:21;;;;;;;1.70;1.48;;;11.10;97.90;;;12.04;47.58;96732.16;5206082;28;20279;-59
2021/03/13 09:02:53;;;;;;;2.38;1.70;;;11.40;97.20;;;11.91;47.71;96704.41;5205324;28;20194;-61
2021/03/13 09:05:25;;;;;;;1.70;1.60;;;11.30;96.70;;;11.95;47.75;96703.69;5206239;28;20240;-59
2021/03/13 09:07:58;;;;;;;1.83;1.73;;;11.20;97.00;;;11.90;47.01;96700.09;5215869;28;20315;-60
2021/03/13 09:10:32;;;;;;;1.70;1.60;;;11.20;96.60;;;12.02;48.05;96702.19;5207951;28;20221;-62
2021/03/13 09:13:04;;;;;;;2.20;1.17;;;11.20;97.40;;;11.99;46.63;96687.63;5205858;28;20205;-62
2021/03/13 09:15:36;;;;;;;1.52;1.48;;;11.20;96.10;;;11.89;46.19;96667.63;5207363;28;20206;-61
2021/03/13 09:18:14;;;;;;;1.45;1.40;;;11.10;96.00;;;11.85;47.17;96664.13;5205068;28;20209;-62
2021/03/13 09:20:46;;;;;;;1.65;1.55;;;11.10;96.50;;;11.83;46.86;96662.28;5206143;28;20212;-62
2021/03/13 09:23:18;;;;;;;1.77;1.60;;;11.10;96.40;;;11.80;46.40;96657.06;5205642;28;20202;-61
2021/03/13 09:25:51;;;;;;;1.70;1.60;;;11.10;96.20;;;11.77;46.05;96636.50;5205816;28;20693;-61
2021/03/13 09:28:23;;;;;;;1.93;1.83;;;11.00;96.00;;;11.76;46.02;96637.28;5205391;28;20577;-60
2021/03/13 09:30:55;;;;;;;1.50;1.45;;;11.10;95.60;;;11.64;45.71;96627.53;5205419;28;20194;-62
2021/03/13 09:33:27;;;;;;;1.60;1.50;;;11.10;94.90;;;11.61;45.93;96628.28;5205023;28;20202;-62
2021/03/13 09:36:10;;;;;;;1.33;1.33;;;11.00;95.20;;;11.62;44.94;96627.50;5206084;28;20271;-62
2021/03/13 09:38:54;;;;;;;1.70;1.60;;;11.10;94.40;;;11.59;45.37;96624.84;5217161;28;20615;-62
2021/03/13 09:41:27;;;;;;;1.90;1.80;;;11.10;94.50;;;11.58;45.56;96612.84;5226084;28;20717;-62
2021/03/13 09:43:59;;;;;;;1.87;1.70;;;11.10;94.40;;;11.61;45.80;96617.19;5212589;28;20673;-62
2021/03/13 09:46:31;;;;;;;2.37;1.50;;;11.10;94.60;;;11.77;45.39;96624.56;5205468;28;20233;-61
2021/03/13 09:49:06;;;;;;;1.40;1.40;;;11.20;94.70;;;11.89;45.28;96624.13;5204744;28;20247;-62
2021/03/13 09:51:48;;;;;;;1.90;1.70;;;11.20;94.60;;;11.86;44.02;96598.41;5205186;28;20192;-61
2021/03/13 09:54:20;;;;;;;1.70;1.60;;;11.30;93.90;;;11.91;44.83;96591.75;5204657;28;20197;-62
2021/03/13 09:56:52;;;;;;;1.40;1.40;;;11.40;94.00;;;11.93;45.22;96590.09;5205207;28;20205;-62
2021/03/13 09:59:25;;;;;;;1.48;1.38;;;11.40;94.10;;;12.06;44.65;96597.34;5205296;28;20228;-62
2021/03/13 10:01:58;;;;;;;1.70;1.60;;;11.50;93.70;;;12.01;44.46;96603.13;5204955;28;20227;-60
2021/03/13 10:04:32;;;;;;;1.43;1.37;;;11.50;93.50;;;12.05;44.31;96622.91;5203653;28;20708;-62
2021/03/13 10:07:04;;;;;;;1.60;1.50;;;11.60;93.60;;;12.10;44.63;96605.97;5205161;28;20213;-62
2021/03/13 10:09:53;;;;;;;1.90;1.70;;;11.60;93.50;;;12.05;44.77;96592.19;5216446;28;20214;-61
2021/03/13 10:12:29;;;;;;;1.98;1.55;;;11.50;93.80;;;12.11;44.75;96615.41;5204076;28;20193;-61
2021/03/13 10:15:20;;;;;;;1.80;1.70;;;11.50;94.00;;;12.09;44.61;96597.44;5206656;28;20565;-61
2021/03/13 10:18:00;;;;;;;2.13;1.92;;;11.60;93.80;;;12.16;44.50;96609.63;5204921;28;20681;-61
2021/03/13 10:20:34;;;;;;;1.63;1.50;;;11.60;94.20;;;12.28;44.99;96598.88;5214103;28;20756;-61
2021/03/13 10:23:09;;;;;;;2.05;1.70;;;11.50;94.30;;;12.15;44.43;96582.25;5224759;28;20200;-62
2021/03/13 10:25:44;;;;;;;1.77;1.67;;;11.50;94.00;;;12.05;44.78;96590.50;5212263;28;20211;-62
2021/03/13 10:28:17;;;;;;;1.77;1.65;;;11.50;94.00;;;11.90;45.37;96587.44;5191308;28;20193;-63
2021/03/13 10:30:49;;;;;;;1.40;1.27;;;11.40;94.20;;;11.87;45.21;96597.59;5189547;28;20198;-61
2021/03/13 10:33:30;;;;;;;1.65;1.55;;;11.30;94.40;;;11.84;45.65;96579.53;5208611;28;20209;-62
2021/03/13 10:36:03;;;;;;;1.45;1.35;;;11.30;94.50;;;11.86;46.04;96580.50;5218366;28;20573;-62
2021/03/13 10:38:39;;;;;;;1.50;1.40;;;11.30;94.70;;;11.80;46.54;96587.94;5218401;28;20213;-59
2021/03/13 10:41:14;;;;;;;1.73;1.63;;;11.20;94.90;;;11.73;46.31;96571.50;5224373;28;20197;-61
2021/03/13 10:43:48;;;;;;;1.33;1.30;;;11.20;95.00;;;11.71;46.16;96580.84;5216613;28;20197;-61
2021/03/13 10:46:21;;;;;;;1.60;1.50;;;11.30;94.40;;;11.71;45.93;96568.91;5210641;28;20226;-61
2021/03/13 10:49:02;;;;;;;1.90;1.52;;;11.20;94.60;;;11.76;46.66;96556.28;5203797;28;20296;-57
2021/03/13 10:51:41;;;;;;;1.42;1.40;;;11.10;95.20;;;11.75;46.84;96574.13;5204312;28;20566;-60
2021/03/13 10:54:23;;;;;;;1.60;1.50;;;11.20;95.00;;;11.75;46.77;96563.88;5223366;28;20295;-62
2021/03/13 10:56:55;;;;;;;1.20;1.20;;;11.20;95.00;;;11.73;46.38;96567.28;5210950;28;20190;-62
2021/03/13 10:59:34;;;;;;;1.63;1.53;;;11.20;95.00;;;11.72;46.91;96565.53;5214372;28;20213;-62
2021/03/13 11:02:07;;;;;;;1.85;1.75;;;11.20;95.40;;;11.79;47.03;96569.16;5207275;28;20677;-62
2021/03/13 11:04:41;;;;;;;1.58;1.50;;;11.20;95.20;;;11.78;46.67;96559.72;5205479;28;20554;-62